sensor_id;sensor_type;location;lat;lon;timestamp;pressure;altitude;pressure_sealevel;temperature;humidity
71791;BME280;59638;52.126;5.434;2022-10-19T00:02:07;103175.91;;;4.40;100.00
71791;BME280;59638;52.126;5.434;2022-10-19T00:04:33;103178.53;;;4.40;100.00
71791;BME280;59638;52.126;5.434;2022-10-19T00:07:00;103176.78;;;4.41;100.00
71791;BME280;59638;52.126;5.434;2022-10-19T00:09:26;103176.03;;;4.35;100.00
71791;BME280;59638;52.126;5.434;2022-10-19T00:11:54;103183.16;;;4.30;100.00
71791;BME280;59638;52.126;5.434;2022-10-19T00:14:22;103179.78;;;4.25;100.00
71791;BME280;59638;52.126;5.434;2022-10-19T00:16:50;103171.16;;;4.22;100.00
71791;BME280;59638;52.126;5.434;2022-10-19T00:19:20;103166.84;;;4.21;100.00
71791;BME280;59638;52.126;5.434;2022-10-19T00:21:47;103168.59;;;4.20;100.00
71791;BME280;59638;52.126;5.434;2022-10-19T00:24:14;103164.22;;;4.21;100.00
71791;BME280;59638;52.126;5.434;2022-10-19T00:26:40;103170.25;;;4.24;100.00
71791;BME280;59638;52.126;5.434;2022-10-19T00:29:07;103161.69;;;4.18;100.00
71791;BME280;59638;52.126;5.434;2022-10-19T00:31:33;103172.47;;;4.05;100.00
71791;BME280;59638;52.126;5.434;2022-10-19T00:34:00;103163.97;;;3.97;100.00
71791;BME280;59638;52.126;5.434;2022-10-19T00:36:29;103170.16;;;3.93;100.00
71791;BME280;59638;52.126;5.434;2022-10-19T00:38:56;103169.38;;;3.90;100.00
71791;BME280;59638;52.126;5.434;2022-10-19T00:41:25;103163.28;;;3.89;100.00
71791;BME280;59638;52.126;5.434;2022-10-19T00:44:01;103163.34;;;3.86;100.00
71791;BME280;59638;52.126;5.434;2022-10-19T00:46:31;103167.88;;;3.79;100.00
71791;BME280;59638;52.126;5.434;2022-10-19T00:49:03;103167.97;;;3.75;100.00
71791;BME280;59638;52.126;5.434;2022-10-19T00:51:38;103168.81;;;3.77;100.00
71791;BME280;59638;52.126;5.434;2022-10-19T00:54:07;103161.09;;;3.72;100.00
71791;BME280;59638;52.126;5.434;2022-10-19T00:56:34;103162.16;;;3.64;100.00
71791;BME280;59638;52.126;5.434;2022-10-19T00:59:05;103163.13;;;3.60;100.00
71791;BME280;59638;52.126;5.434;2022-10-19T01:01:32;103161.38;;;3.60;100.00
71791;BME280;59638;52.126;5.434;2022-10-19T01:03:59;103162.19;;;3.62;100.00
71791;BME280;59638;52.126;5.434;2022-10-19T01:06:26;103156.09;;;3.62;100.00
71791;BME280;59638;52.126;5.434;2022-10-19T01:08:53;103159.66;;;3.59;100.00
71791;BME280;59638;52.126;5.434;2022-10-19T01:37:04;103132.53;;;3.27;100.00
71791;BME280;59638;52.126;5.434;2022-10-19T01:42:13;103131.97;;;3.13;100.00
71791;BME280;59638;52.126;5.434;2022-10-19T01:44:45;103133.72;;;3.13;100.00
71791;BME280;59638;52.126;5.434;2022-10-19T01:47:21;103132.91;;;3.11;100.00
71791;BME280;59638;52.126;5.434;2022-10-19T01:49:54;103130.31;;;3.11;100.00
71791;BME280;59638;52.126;5.434;2022-10-19T01:52:24;103128.59;;;3.08;100.00
71791;BME280;59638;52.126;5.434;2022-10-19T01:54:55;103130.44;;;3.05;100.00
71791;BME280;59638;52.126;5.434;2022-10-19T01:57:29;103130.56;;;2.98;100.00
71791;BME280;59638;52.126;5.434;2022-10-19T01:59:57;103127.91;;;3.00;100.00
71791;BME280;59638;52.126;5.434;2022-10-19T02:02:25;103126.97;;;3.04;100.00
71791;BME280;59638;52.126;5.434;2022-10-19T02:04:53;103134.84;;;3.01;100.00
71791;BME280;59638;52.126;5.434;2022-10-19T02:07:23;103139.34;;;2.94;100.00
71791;BME280;59638;52.126;5.434;2022-10-19T02:09:50;103132.44;;;2.90;100.00
71791;BME280;59638;52.126;5.434;2022-10-19T02:12:17;103131.69;;;2.87;100.00
71791;BME280;59638;52.126;5.434;2022-10-19T02:14:49;103133.47;;;2.85;100.00
71791;BME280;59638;52.126;5.434;2022-10-19T02:17:24;103134.38;;;2.82;100.00
71791;BME280;59638;52.126;5.434;2022-10-19T02:19:52;103131.81;;;2.81;100.00
71791;BME280;59638;52.126;5.434;2022-10-19T02:22:20;103134.44;;;2.79;100.00
71791;BME280;59638;52.126;5.434;2022-10-19T02:24:47;103122.34;;;2.75;100.00
71791;BME280;59638;52.126;5.434;2022-10-19T02:27:13;103122.34;;;2.75;100.00
71791;BME280;59638;52.126;5.434;2022-10-19T02:29:40;103131.06;;;2.74;100.00
71791;BME280;59638;52.126;5.434;2022-10-19T02:32:08;103136.41;;;2.68;100.00
71791;BME280;59638;52.126;5.434;2022-10-19T02:34:35;103131.31;;;2.62;100.00
71791;BME280;59638;52.126;5.434;2022-10-19T02:37:03;103127.81;;;2.63;100.00
71791;BME280;59638;52.126;5.434;2022-10-19T02:39:29;103134.72;;;2.64;100.00
71791;BME280;59638;52.126;5.434;2022-10-19T02:42:03;103130.38;;;2.66;100.00
71791;BME280;59638;52.126;5.434;2022-10-19T02:44:46;103121.69;;;2.64;100.00
71791;BME280;59638;52.126;5.434;2022-10-19T02:47:18;103120.78;;;2.66;100.00
71791;BME280;59638;52.126;5.434;2022-10-19T02:49:46;103110.13;;;2.77;100.00
71791;BME280;59638;52.126;5.434;2022-10-19T02:52:13;103113.47;;;2.85;100.00
71791;BME280;59638;52.126;5.434;2022-10-19T02:54:42;103118.63;;;2.87;100.00
71791;BME280;59638;52.126;5.434;2022-10-19T02:57:20;103103.03;;;2.85;100.00
71791;BME280;59638;52.126;5.434;2022-10-19T02:59:48;103104.75;;;2.86;100.00
71791;BME280;59638;52.126;5.434;2022-10-19T03:02:15;103107.47;;;2.80;100.00
71791;BME280;59638;52.126;5.434;2022-10-19T03:04:42;103114.47;;;2.77;100.00
71791;BME280;59638;52.126;5.434;2022-10-19T03:07:14;103108.50;;;2.73;100.00
71791;BME280;59638;52.126;5.434;2022-10-19T03:09:41;103105.88;;;2.73;100.00
71791;BME280;59638;52.126;5.434;2022-10-19T03:12:08;103116.34;;;2.71;100.00
71791;BME280;59638;52.126;5.434;2022-10-19T03:14:34;103099.00;;;2.69;100.00
71791;BME280;59638;52.126;5.434;2022-10-19T03:17:01;103106.94;;;2.63;100.00
71791;BME280;59638;52.126;5.434;2022-10-19T03:19:28;103101.81;;;2.60;100.00
71791;BME280;59638;52.126;5.434;2022-10-19T03:21:55;103102.69;;;2.59;100.00
71791;BME280;59638;52.126;5.434;2022-10-19T03:24:21;103102.72;;;2.57;100.00
71791;BME280;59638;52.126;5.434;2022-10-19T03:26:47;103094.16;;;2.51;100.00
71791;BME280;59638;52.126;5.434;2022-10-19T03:29:14;103091.75;;;2.41;100.00
71791;BME280;59638;52.126;5.434;2022-10-19T03:31:40;103088.25;;;2.42;100.00
71791;BME280;59638;52.126;5.434;2022-10-19T03:34:07;103089.00;;;2.48;100.00
71791;BME280;59638;52.126;5.434;2022-10-19T03:36:37;103095.03;;;2.50;100.00
71791;BME280;59638;52.126;5.434;2022-10-19T03:39:06;103094.31;;;2.44;100.00
71791;BME280;59638;52.126;5.434;2022-10-19T03:41:35;103089.16;;;2.40;100.00
71791;BME280;59638;52.126;5.434;2022-10-19T03:44:02;103091.81;;;2.37;100.00
71791;BME280;59638;52.126;5.434;2022-10-19T03:46:29;103094.50;;;2.34;100.00
71791;BME280;59638;52.126;5.434;2022-10-19T03:48:56;103098.91;;;2.30;100.00
71791;BME280;59638;52.126;5.434;2022-10-19T03:51:24;103096.56;;;2.18;100.00
71791;BME280;59638;52.126;5.434;2022-10-19T03:54:10;103092.31;;;2.11;100.00
71791;BME280;59638;52.126;5.434;2022-10-19T03:56:37;103089.69;;;2.12;100.00
71791;BME280;59638;52.126;5.434;2022-10-19T03:59:05;103088.78;;;2.15;100.00
71791;BME280;59638;52.126;5.434;2022-10-19T04:01:34;103088.72;;;2.18;100.00
71791;BME280;59638;52.126;5.434;2022-10-19T04:04:08;103092.16;;;2.20;100.00
71791;BME280;59638;52.126;5.434;2022-10-19T04:06:37;103095.75;;;2.13;100.00
71791;BME280;59638;52.126;5.434;2022-10-19T04:09:05;103088.84;;;2.10;100.00
71791;BME280;59638;52.126;5.434;2022-10-19T04:11:33;103090.66;;;2.07;100.00
71791;BME280;59638;52.126;5.434;2022-10-19T04:14:00;103090.66;;;2.07;100.00
71791;BME280;59638;52.126;5.434;2022-10-19T04:16:29;103085.50;;;2.05;100.00
71791;BME280;59638;52.126;5.434;2022-10-19T04:18:57;103086.38;;;2.03;100.00
71791;BME280;59638;52.126;5.434;2022-10-19T04:24:04;103090.78;;;2.01;100.00
71791;BME280;59638;52.126;5.434;2022-10-19T04:26:32;103096.84;;;2.01;100.00
71791;BME280;59638;52.126;5.434;2022-10-19T04:28:59;103094.28;;;2.00;100.00
71791;BME280;59638;52.126;5.434;2022-10-19T04:31:27;103090.78;;;2.01;100.00
71791;BME280;59638;52.126;5.434;2022-10-19T04:33:53;103099.47;;;2.00;100.00
71791;BME280;59638;52.126;5.434;2022-10-19T04:36:20;103097.75;;;1.99;100.00
71791;BME280;59638;52.126;5.434;2022-10-19T04:38:46;103095.16;;;1.97;100.00
71791;BME280;59638;52.126;5.434;2022-10-19T04:41:15;103088.25;;;1.96;100.00
71791;BME280;59638;52.126;5.434;2022-10-19T04:43:42;103085.50;;;2.05;100.00
71791;BME280;59638;52.126;5.434;2022-10-19T04:46:16;103088.88;;;2.09;100.00
71791;BME280;59638;52.126;5.434;2022-10-19T04:48:43;103092.38;;;2.08;100.00
71791;BME280;59638;52.126;5.434;2022-10-19T04:51:10;103092.44;;;2.05;100.00
71791;BME280;59638;52.126;5.434;2022-10-19T04:53:38;103094.16;;;2.06;100.00
71791;BME280;59638;52.126;5.434;2022-10-19T04:56:17;103095.88;;;2.07;100.00
71791;BME280;59638;52.126;5.434;2022-10-19T04:58:45;103098.50;;;2.04;100.00
71791;BME280;59638;52.126;5.434;2022-10-19T05:01:20;103096.81;;;2.03;100.00
71791;BME280;59638;52.126;5.434;2022-10-19T05:03:47;103095.06;;;2.03;100.00
71791;BME280;59638;52.126;5.434;2022-10-19T05:06:14;103095.13;;;2.00;100.00
71791;BME280;59638;52.126;5.434;2022-10-19T05:08:41;103094.31;;;1.97;100.00
71791;BME280;59638;52.126;5.434;2022-10-19T05:11:10;103092.59;;;1.96;100.00
71791;BME280;59638;52.126;5.434;2022-10-19T05:13:37;103085.66;;;1.95;100.00
71791;BME280;59638;52.126;5.434;2022-10-19T05:16:05;103085.69;;;1.93;100.00
71791;BME280;59638;52.126;5.434;2022-10-19T05:18:33;103081.38;;;1.92;100.00
71791;BME280;59638;52.126;5.434;2022-10-19T05:21:05;103087.44;;;1.93;100.00
71791;BME280;59638;52.126;5.434;2022-10-19T05:23:32;103082.28;;;1.89;100.00
71791;BME280;59638;52.126;5.434;2022-10-19T05:26:13;103082.28;;;1.89;100.00
71791;BME280;59638;52.126;5.434;2022-10-19T05:28:40;103082.34;;;1.86;100.00
71791;BME280;59638;52.126;5.434;2022-10-19T05:31:11;103074.56;;;1.83;100.00
71791;BME280;59638;52.126;5.434;2022-10-19T05:33:39;103074.59;;;1.82;100.00
71791;BME280;59638;52.126;5.434;2022-10-19T05:36:35;103072.03;;;1.80;100.00
71791;BME280;59638;52.126;5.434;2022-10-19T05:39:06;103071.06;;;1.84;100.00
71791;BME280;59638;52.126;5.434;2022-10-19T05:41:33;103070.22;;;1.85;100.00
71791;BME280;59638;52.126;5.434;2022-10-19T05:44:01;103077.19;;;1.83;100.00
71791;BME280;59638;52.126;5.434;2022-10-19T05:46:28;103067.72;;;1.78;100.00
71791;BME280;59638;52.126;5.434;2022-10-19T05:48:57;103079.06;;;1.75;100.00
71791;BME280;59638;52.126;5.434;2022-10-19T05:51:25;103080.09;;;1.67;100.00
71791;BME280;59638;52.126;5.434;2022-10-19T05:53:53;103072.25;;;1.68;100.00
71791;BME280;59638;52.126;5.434;2022-10-19T05:56:25;103076.56;;;1.69;100.00
71791;BME280;59638;52.126;5.434;2022-10-19T05:58:53;103071.34;;;1.69;100.00
71791;BME280;59638;52.126;5.434;2022-10-19T06:01:20;103069.56;;;1.71;100.00
71791;BME280;59638;52.126;5.434;2022-10-19T06:03:50;103071.16;;;1.81;100.00
71791;BME280;59638;52.126;5.434;2022-10-19T06:06:17;103071.97;;;1.83;100.00
71791;BME280;59638;52.126;5.434;2022-10-19T06:08:44;103079.84;;;1.80;100.00
71791;BME280;59638;52.126;5.434;2022-10-19T06:11:15;103077.28;;;1.77;100.00
71791;BME280;59638;52.126;5.434;2022-10-19T06:13:43;103068.66;;;1.75;100.00
71791;BME280;59638;52.126;5.434;2022-10-19T06:16:12;103073.84;;;1.75;100.00
71791;BME280;59638;52.126;5.434;2022-10-19T06:18:39;103062.53;;;1.76;100.00
71791;BME280;59638;52.126;5.434;2022-10-19T06:21:10;103059.94;;;1.76;100.00
71791;BME280;59638;52.126;5.434;2022-10-19T06:23:36;103073.00;;;1.75;100.00
71791;BME280;59638;52.126;5.434;2022-10-19T06:26:06;103079.13;;;1.72;100.00
71791;BME280;59638;52.126;5.434;2022-10-19T06:28:33;103084.34;;;1.72;100.00
71791;BME280;59638;52.126;5.434;2022-10-19T06:31:00;103086.06;;;1.73;100.00
71791;BME280;59638;52.126;5.434;2022-10-19T06:33:29;103080.84;;;1.73;100.00
71791;BME280;59638;52.126;5.434;2022-10-19T06:38:39;103078.84;;;1.87;100.00
71791;BME280;59638;52.126;5.434;2022-10-19T06:41:06;103083.06;;;1.95;100.00
71791;BME280;59638;52.126;5.434;2022-10-19T06:43:33;103083.78;;;2.03;100.00
71791;BME280;59638;52.126;5.434;2022-10-19T06:46:04;103083.66;;;2.09;100.00
71791;BME280;59638;52.126;5.434;2022-10-19T06:48:31;103087.09;;;2.12;100.00
71791;BME280;59638;52.126;5.434;2022-10-19T06:51:00;103081.72;;;2.20;100.00
71791;BME280;59638;52.126;5.434;2022-10-19T06:53:27;103084.94;;;2.34;100.00
71791;BME280;59638;52.126;5.434;2022-10-19T06:55:57;103075.97;;;2.48;100.00
71791;BME280;59638;52.126;5.434;2022-10-19T06:58:24;103067.03;;;2.61;100.00
71791;BME280;59638;52.126;5.434;2022-10-19T07:00:58;103062.31;;;2.78;100.00
71791;BME280;59638;52.126;5.434;2022-10-19T07:03:26;103054.91;;;2.98;100.00
71791;BME280;59638;52.126;5.434;2022-10-19T07:05:54;103057.00;;;3.20;100.00
71791;BME280;59638;52.126;5.434;2022-10-19T07:08:21;103060.88;;;3.41;100.00
71791;BME280;59638;52.126;5.434;2022-10-19T07:10:49;103061.13;;;3.66;100.00
71791;BME280;59638;52.126;5.434;2022-10-19T07:13:16;103058.44;;;4.01;100.00
71791;BME280;59638;52.126;5.434;2022-10-19T07:15:43;103058.25;;;4.40;100.00
71791;BME280;59638;52.126;5.434;2022-10-19T07:18:09;103056.19;;;4.81;100.00
71791;BME280;59638;52.126;5.434;2022-10-19T07:20:35;103054.00;;;4.95;100.00
71791;BME280;59638;52.126;5.434;2022-10-19T07:23:02;103048.47;;;5.32;100.00
71791;BME280;59638;52.126;5.434;2022-10-19T07:25:28;103055.81;;;6.49;100.00
71791;BME280;59638;52.126;5.434;2022-10-19T07:27:55;103056.09;;;7.30;100.00
71791;BME280;59638;52.126;5.434;2022-10-19T07:30:22;103051.94;;;8.28;100.00
71791;BME280;59638;52.126;5.434;2022-10-19T07:32:49;103042.03;;;8.91;100.00
71791;BME280;59638;52.126;5.434;2022-10-19T07:35:15;103046.78;;;9.38;100.00
71791;BME280;59638;52.126;5.434;2022-10-19T07:37:42;103039.78;;;9.89;100.00
71791;BME280;59638;52.126;5.434;2022-10-19T07:40:09;103042.44;;;10.22;100.00
71791;BME280;59638;52.126;5.434;2022-10-19T07:42:35;103054.00;;;10.37;100.00
71791;BME280;59638;52.126;5.434;2022-10-19T07:45:03;103056.56;;;10.39;100.00
71791;BME280;59638;52.126;5.434;2022-10-19T07:47:29;103057.84;;;10.47;100.00
71791;BME280;59638;52.126;5.434;2022-10-19T07:49:56;103053.78;;;10.57;100.00
71791;BME280;59638;52.126;5.434;2022-10-19T07:52:22;103052.59;;;11.10;100.00
71791;BME280;59638;52.126;5.434;2022-10-19T07:54:49;103056.97;;;11.71;99.16
71791;BME280;59638;52.126;5.434;2022-10-19T07:57:15;103050.34;;;12.23;97.75
71791;BME280;59638;52.126;5.434;2022-10-19T07:59:42;103047.31;;;12.58;94.96
71791;BME280;59638;52.126;5.434;2022-10-19T08:02:13;103047.00;;;12.76;93.26
71791;BME280;59638;52.126;5.434;2022-10-19T08:04:41;103038.19;;;13.03;92.79
71791;BME280;59638;52.126;5.434;2022-10-19T08:07:27;103041.09;;;13.40;90.89
71791;BME280;59638;52.126;5.434;2022-10-19T08:09:53;103047.28;;;13.53;88.90
71791;BME280;59638;52.126;5.434;2022-10-19T08:12:20;103039.78;;;13.72;87.87
71791;BME280;59638;52.126;5.434;2022-10-19T08:14:46;103042.75;;;14.31;87.21
71791;BME280;59638;52.126;5.434;2022-10-19T08:17:13;103043.44;;;14.72;85.80
71791;BME280;59638;52.126;5.434;2022-10-19T08:19:43;103037.59;;;15.03;85.09
71791;BME280;59638;52.126;5.434;2022-10-19T08:22:10;103033.75;;;15.07;83.48
71791;BME280;59638;52.126;5.434;2022-10-19T08:24:36;103034.94;;;15.62;83.03
71791;BME280;59638;52.126;5.434;2022-10-19T08:27:03;103042.88;;;16.09;80.27
71791;BME280;59638;52.126;5.434;2022-10-19T08:29:30;103038.50;;;16.86;79.26
71791;BME280;59638;52.126;5.434;2022-10-19T08:31:57;103030.22;;;17.53;77.70
71791;BME280;59638;52.126;5.434;2022-10-19T08:34:24;103036.53;;;17.94;76.20
71791;BME280;59638;52.126;5.434;2022-10-19T08:36:50;103030.75;;;18.19;73.96
71791;BME280;59638;52.126;5.434;2022-10-19T08:39:17;103026.66;;;18.56;73.80
71791;BME280;59638;52.126;5.434;2022-10-19T08:44:45;103025.50;;;18.08;72.16
71791;BME280;59638;52.126;5.434;2022-10-19T08:49:47;103008.56;;;18.79;70.23
71791;BME280;59638;52.126;5.434;2022-10-19T08:52:23;103001.97;;;19.02;68.72
71791;BME280;59638;52.126;5.434;2022-10-19T08:55:06;103004.63;;;18.83;70.31
71791;BME280;59638;52.126;5.434;2022-10-19T09:00:37;103005.03;;;18.78;71.62
71791;BME280;59638;52.126;5.434;2022-10-19T09:03:36;102995.19;;;19.37;71.26
71791;BME280;59638;52.126;5.434;2022-10-19T09:06:28;103000.50;;;19.75;67.01
71791;BME280;59638;52.126;5.434;2022-10-19T09:08:57;102988.97;;;19.26;67.83
71791;BME280;59638;52.126;5.434;2022-10-19T09:11:28;102981.50;;;19.20;68.61
71791;BME280;59638;52.126;5.434;2022-10-19T09:14:04;102974.00;;;19.53;67.10
71791;BME280;59638;52.126;5.434;2022-10-19T09:16:35;102979.22;;;19.64;68.04
71791;BME280;59638;52.126;5.434;2022-10-19T09:19:13;102970.16;;;20.12;69.97
71791;BME280;59638;52.126;5.434;2022-10-19T09:21:48;102975.25;;;20.33;67.47
71791;BME280;59638;52.126;5.434;2022-10-19T09:24:26;102965.16;;;20.54;62.68
71791;BME280;59638;52.126;5.434;2022-10-19T09:26:57;102981.16;;;19.81;65.66
71791;BME280;59638;52.126;5.434;2022-10-19T09:29:41;102975.66;;;20.48;67.07
71791;BME280;59638;52.126;5.434;2022-10-19T09:32:14;102966.28;;;21.41;62.38
71791;BME280;59638;52.126;5.434;2022-10-19T09:34:49;102978.25;;;21.11;63.14
71791;BME280;59638;52.126;5.434;2022-10-19T09:37:17;102970.63;;;21.68;61.46
71791;BME280;59638;52.126;5.434;2022-10-19T09:39:51;102969.91;;;21.92;61.24
71791;BME280;59638;52.126;5.434;2022-10-19T09:42:25;102963.09;;;22.64;61.05
71791;BME280;59638;52.126;5.434;2022-10-19T09:44:57;102956.03;;;22.47;59.38
71791;BME280;59638;52.126;5.434;2022-10-19T09:52:45;102943.50;;;22.13;56.21
71791;BME280;59638;52.126;5.434;2022-10-19T09:58:04;102942.44;;;22.81;59.02
71791;BME280;59638;52.126;5.434;2022-10-19T10:00:37;102945.63;;;21.76;60.18
71791;BME280;59638;52.126;5.434;2022-10-19T10:03:05;102946.41;;;20.17;61.03
71791;BME280;59638;52.126;5.434;2022-10-19T10:05:37;102948.59;;;19.76;60.62
71791;BME280;59638;52.126;5.434;2022-10-19T10:08:12;102954.56;;;19.51;62.27
71791;BME280;59638;52.126;5.434;2022-10-19T10:10:43;102949.75;;;19.64;61.02
71791;BME280;59638;52.126;5.434;2022-10-19T10:13:20;102945.41;;;19.91;64.97
71791;BME280;59638;52.126;5.434;2022-10-19T10:15:54;102938.09;;;20.48;61.84
71791;BME280;59638;52.126;5.434;2022-10-19T10:18:23;102932.16;;;20.98;60.17
71791;BME280;59638;52.126;5.434;2022-10-19T10:21:02;102941.19;;;21.14;60.87
71791;BME280;59638;52.126;5.434;2022-10-19T10:23:34;102924.88;;;20.72;56.37
71791;BME280;59638;52.126;5.434;2022-10-19T10:26:03;102935.50;;;20.28;60.44
71791;BME280;59638;52.126;5.434;2022-10-19T10:28:30;102945.47;;;20.36;57.93
71791;BME280;59638;52.126;5.434;2022-10-19T10:31:06;102937.69;;;20.15;61.80
71791;BME280;59638;52.126;5.434;2022-10-19T10:33:36;102937.06;;;19.94;60.70
71791;BME280;59638;52.126;5.434;2022-10-19T10:36:11;102945.22;;;19.74;62.33
71791;BME280;59638;52.126;5.434;2022-10-19T10:38:40;102934.78;;;19.71;62.22
71791;BME280;59638;52.126;5.434;2022-10-19T10:41:12;102926.38;;;20.21;61.48
71791;BME280;59638;52.126;5.434;2022-10-19T10:43:51;102919.91;;;20.59;61.91
71791;BME280;59638;52.126;5.434;2022-10-19T10:46:27;102913.34;;;21.15;61.83
71791;BME280;59638;52.126;5.434;2022-10-19T10:48:57;102913.16;;;21.17;60.88
71791;BME280;59638;52.126;5.434;2022-10-19T10:51:32;102904.88;;;21.96;59.69
71791;BME280;59638;52.126;5.434;2022-10-19T10:57:00;102904.09;;;20.92;60.58
71791;BME280;59638;52.126;5.434;2022-10-19T10:59:40;102897.53;;;20.69;63.38
71791;BME280;59638;52.126;5.434;2022-10-19T11:05:14;102878.84;;;20.31;60.68
71791;BME280;59638;52.126;5.434;2022-10-19T11:07:45;102879.47;;;20.43;61.13
71791;BME280;59638;52.126;5.434;2022-10-19T11:10:32;102880.66;;;21.46;65.02
71791;BME280;59638;52.126;5.434;2022-10-19T11:15:34;102868.75;;;21.49;58.01
71791;BME280;59638;52.126;5.434;2022-10-19T11:18:11;102858.56;;;21.60;60.09
71791;BME280;59638;52.126;5.434;2022-10-19T11:20:47;102855.47;;;21.21;59.50
71791;BME280;59638;52.126;5.434;2022-10-19T11:23:26;102852.28;;;21.94;53.02
71791;BME280;59638;52.126;5.434;2022-10-19T11:29:13;102853.72;;;22.31;59.73
71791;BME280;59638;52.126;5.434;2022-10-19T11:31:46;102839.41;;;23.03;52.59
71791;BME280;59638;52.126;5.434;2022-10-19T11:34:37;102835.75;;;22.64;59.08
71791;BME280;59638;52.126;5.434;2022-10-19T11:37:36;102828.00;;;23.88;58.51
71791;BME280;59638;52.126;5.434;2022-10-19T11:43:06;102809.06;;;23.96;53.36
71791;BME280;59638;52.126;5.434;2022-10-19T11:46:02;102816.09;;;24.36;55.51
71791;BME280;59638;52.126;5.434;2022-10-19T11:51:59;102800.19;;;23.65;56.02
71791;BME280;59638;52.126;5.434;2022-10-19T11:54:53;102803.75;;;23.01;58.77
71791;BME280;59638;52.126;5.434;2022-10-19T11:57:30;102786.56;;;24.35;54.64
71791;BME280;59638;52.126;5.434;2022-10-19T12:00:10;102781.91;;;24.81;54.68
71791;BME280;59638;52.126;5.434;2022-10-19T12:13:46;102763.66;;;24.98;55.65
71791;BME280;59638;52.126;5.434;2022-10-19T12:16:16;102758.00;;;24.18;48.23
71791;BME280;59638;52.126;5.434;2022-10-19T12:18:49;102751.75;;;24.40;52.03
71791;BME280;59638;52.126;5.434;2022-10-19T12:21:27;102741.75;;;24.93;53.70
71791;BME280;59638;52.126;5.434;2022-10-19T12:23:56;102741.91;;;24.47;51.32
71791;BME280;59638;52.126;5.434;2022-10-19T12:26:24;102750.72;;;20.61;54.04
71791;BME280;59638;52.126;5.434;2022-10-19T12:28:54;102747.81;;;17.86;60.00
71791;BME280;59638;52.126;5.434;2022-10-19T12:31:24;102752.44;;;17.03;64.26
71791;BME280;59638;52.126;5.434;2022-10-19T12:34:05;102749.34;;;16.56;64.82
71791;BME280;59638;52.126;5.434;2022-10-19T12:39:37;102730.38;;;15.42;69.34
71791;BME280;59638;52.126;5.434;2022-10-19T12:42:33;102731.69;;;15.37;70.23
71791;BME280;59638;52.126;5.434;2022-10-19T12:45:22;102723.13;;;15.22;72.58
71791;BME280;59638;52.126;5.434;2022-10-19T12:53:31;102703.91;;;14.85;72.72
71791;BME280;59638;52.126;5.434;2022-10-19T12:56:02;102700.88;;;14.78;72.20
71791;BME280;59638;52.126;5.434;2022-10-19T12:58:55;102690.00;;;14.70;71.88
71791;BME280;59638;52.126;5.434;2022-10-19T13:01:26;102685.28;;;14.62;72.78
71791;BME280;59638;52.126;5.434;2022-10-19T13:04:23;102678.28;;;14.61;73.48
71791;BME280;59638;52.126;5.434;2022-10-19T13:15:00;102660.94;;;14.33;74.38
71791;BME280;59638;52.126;5.434;2022-10-19T13:22:40;102641.84;;;14.28;72.38
71791;BME280;59638;52.126;5.434;2022-10-19T13:27:46;102629.78;;;14.35;74.85
71791;BME280;59638;52.126;5.434;2022-10-19T13:41:22;102624.44;;;14.24;74.71
71791;BME280;59638;52.126;5.434;2022-10-19T13:58:09;102608.00;;;14.19;77.02
71791;BME280;59638;52.126;5.434;2022-10-19T14:04:33;102608.97;;;14.18;75.81
71791;BME280;59638;52.126;5.434;2022-10-19T14:06:35;102614.28;;;14.18;76.43
71791;BME280;59638;52.126;5.434;2022-10-19T14:11:50;102620.31;;;14.09;75.16
71791;BME280;59638;52.126;5.434;2022-10-19T14:14:23;102611.00;;;14.03;75.23
71791;BME280;59638;52.126;5.434;2022-10-19T14:16:58;102617.16;;;14.04;76.80
71791;BME280;59638;52.126;5.434;2022-10-19T14:19:41;102611.59;;;13.96;76.61
71791;BME280;59638;52.126;5.434;2022-10-19T14:22:37;102618.00;;;13.93;77.67
71791;BME280;59638;52.126;5.434;2022-10-19T14:25:16;102618.53;;;13.85;77.32
71791;BME280;59638;52.126;5.434;2022-10-19T14:27:43;102619.75;;;13.81;77.93
71791;BME280;59638;52.126;5.434;2022-10-19T14:30:21;102622.16;;;13.84;77.02
71791;BME280;59638;52.126;5.434;2022-10-19T14:32:48;102620.72;;;13.80;77.66
71791;BME280;59638;52.126;5.434;2022-10-19T14:35:20;102620.09;;;13.77;77.54
71791;BME280;59638;52.126;5.434;2022-10-19T14:37:47;102612.97;;;13.77;77.69
71791;BME280;59638;52.126;5.434;2022-10-19T14:40:26;102608.97;;;13.72;78.26
71791;BME280;59638;52.126;5.434;2022-10-19T14:42:54;102607.41;;;13.69;78.63
71791;BME280;59638;52.126;5.434;2022-10-19T14:45:27;102612.47;;;13.72;78.68
71791;BME280;59638;52.126;5.434;2022-10-19T14:48:02;102602.94;;;13.70;78.70
71791;BME280;59638;52.126;5.434;2022-10-19T14:50:41;102604.97;;;13.66;77.67
71791;BME280;59638;52.126;5.434;2022-10-19T14:55:56;102593.63;;;13.64;78.04
71791;BME280;59638;52.126;5.434;2022-10-19T14:58:25;102584.94;;;13.62;76.91
71791;BME280;59638;52.126;5.434;2022-10-19T15:00:53;102582.75;;;13.56;79.34
71791;BME280;59638;52.126;5.434;2022-10-19T15:03:25;102581.78;;;13.57;78.74
71791;BME280;59638;52.126;5.434;2022-10-19T15:05:57;102575.50;;;13.58;78.60
71791;BME280;59638;52.126;5.434;2022-10-19T15:08:40;102562.47;;;13.55;78.25
71791;BME280;59638;52.126;5.434;2022-10-19T15:11:24;102567.03;;;13.53;80.07
71791;BME280;59638;52.126;5.434;2022-10-19T15:14:05;102559.78;;;13.44;80.04
71791;BME280;59638;52.126;5.434;2022-10-19T15:16:53;102555.44;;;13.43;79.54
71791;BME280;59638;52.126;5.434;2022-10-19T15:22:17;102553.94;;;13.27;79.82
71791;BME280;59638;52.126;5.434;2022-10-19T15:27:28;102544.41;;;13.12;79.03
71791;BME280;59638;52.126;5.434;2022-10-19T15:32:29;102537.06;;;12.92;80.50
71791;BME280;59638;52.126;5.434;2022-10-19T15:34:57;102520.16;;;12.82;80.88
71791;BME280;59638;52.126;5.434;2022-10-19T15:37:24;102527.78;;;12.73;81.10